Time;durP1;ratioP1;P1;durP2;ratioP2;P2;SDS_P1;SDS_P2;PMS_P1;PMS_P2;Temp;Humidity;BMP_temperature;BMP_pressure;BME280_temperature;BME280_humidity;BME280_pressure;Samples;Min_cycle;Max_cycle;Signal;HPM_P1;HPM_P2
2022/06/01 00:00:32;;;;;;;13.68;6.20;;;;;;;15.72;76.04;94094.00;5102859;28;20023;-80
2022/06/01 00:02:58;;;;;;;11.80;6.45;;;;;;;15.66;76.06;94088.06;5102843;28;20035;-79
2022/06/01 00:05:24;;;;;;;16.65;6.88;;;;;;;15.61;76.21;94083.72;5102721;28;20257;-78
2022/06/01 00:07:50;;;;;;;15.98;7.07;;;;;;;15.60;76.40;94081.34;5102717;28;20036;-79
2022/06/01 00:10:16;;;;;;;12.88;7.07;;;;;;;15.60;76.39;94089.41;5102702;28;20031;-79
2022/06/01 00:12:42;;;;;;;11.15;6.57;;;;;;;15.55;76.37;94078.88;5102748;28;20024;-79
2022/06/01 00:15:09;;;;;;;11.15;5.65;;;;;;;15.52;76.62;94087.63;5102664;28;20050;-80
2022/06/01 00:17:35;;;;;;;18.38;6.47;;;;;;;15.51;76.31;94078.00;5102968;28;20035;-80
2022/06/01 00:20:00;;;;;;;14.90;5.97;;;;;;;15.51;76.50;94078.00;5102657;28;20278;-79
2022/06/01 00:22:26;;;;;;;14.10;6.57;;;;;;;15.51;76.20;94089.53;5102561;28;20364;-78
2022/06/01 00:24:51;;;;;;;10.43;5.47;;;;;;;15.51;75.93;94096.81;5102608;28;20024;-78
2022/06/01 00:27:18;;;;;;;15.93;6.10;;;;;;;15.47;76.21;94095.91;5102453;28;20016;-78
2022/06/01 00:29:44;;;;;;;16.77;6.65;;;;;;;15.41;76.25;94090.00;5102555;28;20020;-79
2022/06/01 00:32:11;;;;;;;13.43;6.57;;;;;;;15.38;76.52;94096.81;5102572;28;20030;-78
2022/06/01 00:34:38;;;;;;;15.75;8.07;;;;;;;15.39;76.63;94093.03;5102712;28;20064;-78
2022/06/01 00:37:04;;;;;;;13.90;6.18;;;;;;;15.41;76.48;94085.41;5102613;28;20049;-79
2022/06/01 00:39:30;;;;;;;11.38;5.75;;;;;;;15.42;76.71;94080.81;5105321;28;20249;-79
2022/06/01 00:42:12;;;;;;;8.68;5.82;;;;;;;15.41;76.54;94074.66;5106057;28;20032;-79
2022/06/01 00:44:38;;;;;;;15.65;6.05;;;;;;;15.40;76.52;94080.38;5106655;28;20042;-78
2022/06/01 00:47:04;;;;;;;15.88;5.80;;;;;;;15.38;76.28;94080.69;5106178;28;20087;-78
2022/06/01 00:49:29;;;;;;;13.15;6.90;;;;;;;15.34;76.70;94068.28;5106040;28;20058;-78
2022/06/01 00:51:55;;;;;;;9.40;5.43;;;;;;;15.38;76.74;94069.19;5106110;28;20016;-78
2022/06/01 00:54:21;;;;;;;10.60;5.63;;;;;;;15.36;76.46;94077.56;5105901;28;20378;-78
2022/06/01 00:56:55;;;;;;;11.35;5.70;;;;;;;15.34;76.52;94079.81;5106052;28;20024;-78
2022/06/01 00:59:26;;;;;;;20.48;5.95;;;;;;;15.30;76.55;94078.91;5105838;28;20028;-77
2022/06/01 01:01:53;;;;;;;14.93;5.55;;;;;;;15.25;76.77;94077.25;5105888;28;20024;-78
2022/06/01 01:04:20;;;;;;;10.75;5.20;;;;;;;15.18;76.13;94082.41;5105857;28;20023;-78
2022/06/01 01:06:46;;;;;;;17.02;5.53;;;;;;;15.08;75.81;94082.84;5105813;28;20024;-79
2022/06/01 01:09:12;;;;;;;20.48;5.70;;;;;;;14.98;76.62;94081.41;5105610;28;20376;-78
2022/06/01 01:11:58;;;;;;;12.35;6.13;;;;;;;14.93;77.24;94084.28;5105933;28;20314;-79
2022/06/01 01:14:29;;;;;;;10.63;6.47;;;;;;;14.90;77.52;94076.94;5105558;28;20103;-78
2022/06/01 01:16:54;;;;;;;10.45;5.40;;;;;;;14.88;77.68;94068.44;5105589;28;20024;-79
2022/06/01 01:19:26;;;;;;;14.05;5.50;;;;;;;14.87;77.42;94064.16;5105376;28;20020;-79
2022/06/01 01:22:11;;;;;;;11.77;5.40;;;;;;;14.88;77.52;94064.94;5105452;28;20031;-80
2022/06/01 01:24:37;;;;;;;11.95;5.63;;;;;;;14.83;77.75;94063.28;5105552;28;20088;-79
2022/06/01 01:27:03;;;;;;;12.10;6.20;;;;;;;14.85;77.77;94055.66;5105469;28;20350;-79
2022/06/01 01:29:36;;;;;;;11.07;5.68;;;;;;;14.86;77.66;94038.47;5105435;28;20012;-81
2022/06/01 01:32:05;;;;;;;15.68;5.68;;;;;;;14.89;77.37;94037.78;5105129;28;20012;-81
2022/06/01 01:34:31;;;;;;;13.77;5.15;;;;;;;14.86;77.14;94033.09;5105433;28;20212;-81
2022/06/01 01:37:02;;;;;;;13.05;5.35;;;;;;;14.82;76.90;94027.63;5105100;28;20020;-81
2022/06/01 01:39:30;;;;;;;13.30;5.07;;;;;;;14.82;77.04;94034.88;5105233;28;20020;-81
2022/06/01 01:41:56;;;;;;;14.23;4.80;;;;;;;14.84;76.96;94036.09;5104813;28;20106;-80
2022/06/01 01:44:34;;;;;;;10.95;4.78;;;;;;;14.87;76.74;94033.88;5104956;28;20024;-80
2022/06/01 01:47:01;;;;;;;15.43;5.13;;;;;;;14.84;76.67;94032.66;5105086;28;20223;-80
2022/06/01 01:49:31;;;;;;;17.35;4.68;;;;;;;14.83;76.55;94029.16;5103560;28;20388;-81
2022/06/01 01:52:02;;;;;;;11.73;4.28;;;;;;;14.84;76.55;94043.38;5104750;28;20079;-80
2022/06/01 01:54:49;;;;;;;11.35;4.55;;;;;;;14.81;76.61;94041.34;5104908;28;20074;-80
2022/06/01 01:57:48;;;;;;;11.68;4.35;;;;;;;14.78;76.58;94034.75;5104767;28;20028;-77
2022/06/01 02:00:17;;;;;;;11.85;4.60;;;;;;;14.75;76.21;94043.47;5104822;28;20235;-78
2022/06/01 02:02:55;;;;;;;15.13;4.20;;;;;;;14.73;76.18;94050.28;5104681;28;20027;-78
2022/06/01 02:08:30;;;;;;;16.80;4.13;;;;;;;14.66;75.50;94047.41;5104730;28;20049;-78
2022/06/01 02:13:49;;;;;;;13.20;3.83;;;;;;;14.54;75.73;94037.41;5104539;28;20074;-79
2022/06/01 02:16:15;;;;;;;16.70;5.00;;;;;;;14.51;76.03;94033.50;5104531;28;20016;-79
2022/06/01 02:18:46;;;;;;;12.05;4.00;;;;;;;14.48;76.15;94038.72;5104543;28;20341;-78
2022/06/01 02:21:18;;;;;;;6.32;4.00;;;;;;;14.51;76.20;94044.22;5104443;28;20069;-79
2022/06/01 02:23:44;;;;;;;;;;;;;;;14.47;76.33;94045.19;5104536;28;20333;-78
2022/06/01 02:26:10;;;;;;;14.15;4.97;;;;;;;14.37;77.59;94038.34;5104406;28;19904;-79
2022/06/01 02:28:41;;;;;;;13.60;4.97;;;;;;;14.36;78.24;94050.22;5104388;28;20249;-78
2022/06/01 02:31:08;;;;;;;9.18;5.18;;;;;;;14.30;78.84;94052.31;5104438;28;20016;-78
2022/06/01 02:33:35;;;;;;;16.30;5.18;;;;;;;14.28;78.90;94057.22;5104166;28;20019;-78
2022/06/01 02:36:03;;;;;;;21.27;5.65;;;;;;;14.28;79.28;94056.44;5104056;28;20020;-78
2022/06/01 02:38:49;;;;;;;12.20;5.57;;;;;;;14.30;79.30;94063.03;5104126;28;20023;-78
2022/06/01 02:44:01;;;;;;;13.70;6.43;;;;;;;14.31;79.21;94069.16;5103976;28;20026;-78
2022/06/01 02:46:27;;;;;;;15.80;6.90;;;;;;;14.26;79.73;94070.16;5104005;28;20028;-78
2022/06/01 02:48:53;;;;;;;11.27;6.97;;;;;;;14.23;80.30;94065.50;5103822;28;20024;-78
2022/06/01 02:51:19;;;;;;;10.82;5.72;;;;;;;14.27;80.46;94066.41;5103837;28;20028;-78
2022/06/01 02:53:45;;;;;;;20.42;6.38;;;;;;;14.29;80.46;94066.03;5103902;28;20032;-78
2022/06/01 02:56:11;;;;;;;11.75;6.22;;;;;;;14.25;80.63;94066.72;5104027;28;20322;-78
2022/06/01 02:58:38;;;;;;;10.10;5.88;;;;;;;14.30;80.67;94048.84;5103800;28;20065;-79
2022/06/01 03:01:03;;;;;;;14.20;6.15;;;;;;;14.32;80.17;94057.34;5103074;28;20059;-79
2022/06/01 03:03:30;;;;;;;12.13;5.88;;;;;;;14.33;79.81;94058.91;5085567;28;20028;-79
2022/06/01 03:05:55;;;;;;;13.63;5.47;;;;;;;14.35;79.40;94062.03;5103560;28;20024;-79
2022/06/01 03:08:21;;;;;;;14.23;5.25;;;;;;;14.35;78.94;94068.19;5103764;28;20345;-79
2022/06/01 03:10:48;;;;;;;19.58;7.85;;;;;;;14.36;78.52;94061.72;5103355;28;20214;-79
2022/06/01 03:13:13;;;;;;;18.98;5.78;;;;;;;14.32;78.78;94068.06;5103379;28;20027;-80
2022/06/01 03:15:39;;;;;;;13.25;5.82;;;;;;;14.32;78.77;94078.81;5103708;28;20106;-80
2022/06/01 03:18:05;;;;;;;12.63;6.10;;;;;;;14.30;78.50;94081.03;5103314;28;20024;-80
2022/06/01 03:20:33;;;;;;;14.30;6.75;;;;;;;14.27;78.61;94082.47;5103120;28;20028;-79
2022/06/01 03:22:59;;;;;;;13.05;6.30;;;;;;;14.29;79.62;94090.16;5103279;28;20032;-80
2022/06/01 03:25:26;;;;;;;16.23;7.05;;;;;;;14.30;79.74;94086.38;5103392;28;20031;-81
2022/06/01 03:27:53;;;;;;;16.65;9.68;;;;;;;14.31;80.95;94090.63;5103209;28;20031;-80
2022/06/01 03:30:20;;;;;;;37.83;8.50;;;;;;;14.35;81.00;94091.53;5103299;28;20039;-80
2022/06/01 03:32:47;;;;;;;14.98;6.95;;;;;;;14.38;81.30;94082.84;5103024;28;20020;-80
2022/06/01 03:35:15;;;;;;;23.52;7.07;;;;;;;14.48;81.17;94087.78;5103374;28;20081;-79
2022/06/01 03:37:41;;;;;;;14.18;8.02;;;;;;;14.57;80.77;94090.38;5103411;28;20116;-79
2022/06/01 03:40:08;;;;;;;19.33;9.07;;;;;;;14.66;80.98;94093.00;5102982;28;20044;-78
2022/06/01 03:42:33;;;;;;;28.48;14.30;;;;;;;14.72;81.63;94084.41;5102982;28;20377;-78
2022/06/01 03:47:44;;;;;;;25.13;12.50;;;;;;;14.67;81.52;94087.28;5103169;28;20042;-78
2022/06/01 03:50:10;;;;;;;31.92;13.27;;;;;;;14.68;81.64;94083.50;5103058;28;20218;-78
2022/06/01 03:52:35;;;;;;;26.50;12.95;;;;;;;14.69;81.77;94086.97;5103014;28;20032;-79
2022/06/01 03:55:01;;;;;;;25.13;12.00;;;;;;;14.67;81.36;94095.31;5102698;28;20020;-79
2022/06/01 03:57:27;;;;;;;49.42;13.75;;;;;;;14.59;81.41;94093.53;5102882;28;20035;-78
2022/06/01 03:59:53;;;;;;;30.50;13.05;;;;;;;14.58;81.64;94087.38;5102815;28;20110;-78
2022/06/01 04:02:18;;;;;;;34.45;12.75;;;;;;;14.60;81.67;94089.75;5102661;28;20039;-78
2022/06/01 04:04:43;;;;;;;25.70;12.35;;;;;;;14.54;81.76;94080.31;5103005;28;20065;-77
2022/06/01 04:07:09;;;;;;;23.35;11.75;;;;;;;14.56;81.92;94088.84;5102799;28;20095;-78
2022/06/01 04:09:35;;;;;;;23.98;12.25;;;;;;;14.68;81.76;94093.44;5102788;28;20038;-78
2022/06/01 04:12:00;;;;;;;23.33;11.07;;;;;;;14.75;81.74;94091.00;5102530;28;20298;-77
2022/06/01 04:14:26;;;;;;;23.10;11.00;;;;;;;14.85;80.33;94095.91;5105577;28;20020;-79
2022/06/01 04:16:52;;;;;;;28.85;12.27;;;;;;;14.91;80.33;94093.81;5106886;28;20039;-79
2022/06/01 04:19:17;;;;;;;30.20;13.43;;;;;;;14.98;80.46;94091.34;5088696;28;20055;-77
2022/06/01 04:21:49;;;;;;;25.85;13.68;;;;;;;15.03;80.02;94102.66;5106911;28;20091;-78
2022/06/01 04:24:17;;;;;;;28.52;13.75;;;;;;;15.02;80.06;94103.78;5106840;28;20051;-77
2022/06/01 04:26:43;;;;;;;35.63;14.48;;;;;;;15.03;80.44;94097.28;5106721;28;20036;-77
2022/06/01 04:29:08;;;;;;;29.52;13.52;;;;;;;15.09;80.39;94100.53;5106430;28;20058;-79
2022/06/01 04:31:35;;;;;;;46.00;15.70;;;;;;;15.11;80.28;94098.28;5088339;28;20020;-80
2022/06/01 04:34:00;;;;;;;33.45;15.10;;;;;;;15.13;80.38;94103.34;5106365;28;20314;-78
2022/06/01 04:36:26;;;;;;;26.75;14.30;;;;;;;15.16;80.21;94103.44;5106266;28;20027;-79
2022/06/01 04:38:52;;;;;;;33.33;13.98;;;;;;;15.23;80.54;94102.88;5106196;28;20051;-79
2022/06/01 04:44:30;;;;;;;31.27;13.02;;;;;;;15.38;78.87;94107.56;5004798;28;20273;-81
2022/06/01 04:46:58;;;;;;;33.85;15.10;;;;;;;15.48;79.60;94100.19;5084896;28;20024;-80
2022/06/01 04:49:24;;;;;;;26.52;15.02;;;;;;;15.57;79.95;94106.19;5106099;28;20024;-79
2022/06/01 04:51:50;;;;;;;26.55;13.80;;;;;;;15.71;80.10;94101.25;5105679;28;20062;-77
2022/06/01 04:54:15;;;;;;;25.52;15.05;;;;;;;15.80;79.75;94107.31;5106350;28;20175;-77
2022/06/01 04:56:41;;;;;;;28.75;14.30;;;;;;;15.94;79.35;94106.19;5106092;28;20046;-78
2022/06/01 04:59:06;;;;;;;29.52;13.45;;;;;;;16.07;78.64;94113.06;5105934;28;20040;-74
2022/06/01 05:01:31;;;;;;;21.55;13.65;;;;;;;16.18;78.05;94114.16;5105920;28;20024;-72
2022/06/01 05:03:57;;;;;;;24.90;13.32;;;;;;;16.34;77.30;94118.78;5087893;28;20039;-72
2022/06/01 05:06:23;;;;;;;23.17;13.63;;;;;;;16.44;76.25;94119.09;5105791;28;20084;-72
2022/06/01 05:08:48;;;;;;;23.23;12.63;;;;;;;16.49;76.44;94118.06;5104517;28;20211;-72
2022/06/01 05:11:13;;;;;;;28.98;15.43;;;;;;;16.50;76.49;94116.91;5105938;28;20024;-73
2022/06/01 05:13:39;;;;;;;23.20;13.45;;;;;;;16.49;76.26;94118.06;5105718;28;20024;-72
2022/06/01 05:16:06;;;;;;;21.13;12.77;;;;;;;16.46;76.50;94121.41;5105547;28;20240;-72
2022/06/01 05:18:32;;;;;;;20.80;12.55;;;;;;;16.43;75.92;94128.28;5105544;28;20083;-72
2022/06/01 05:20:58;;;;;;;26.00;13.05;;;;;;;16.43;76.81;94127.50;5105238;28;20256;-72
2022/06/01 05:23:24;;;;;;;24.77;13.07;;;;;;;16.44;76.39;94129.06;5105565;28;20044;-72
2022/06/01 05:25:52;;;;;;;27.67;14.00;;;;;;;16.36;77.16;94127.28;5104929;28;20042;-72
2022/06/01 05:28:24;;;;;;;28.25;15.13;;;;;;;16.40;77.48;94133.56;5105322;28;20031;-72
2022/06/01 05:30:49;;;;;;;21.95;13.13;;;;;;;16.45;77.95;94130.63;5105514;28;20043;-73
2022/06/01 05:33:15;;;;;;;28.75;14.52;;;;;;;16.48;77.38;94140.69;5105399;28;20031;-72
2022/06/01 05:35:40;;;;;;;27.75;14.25;;;;;;;16.52;78.33;94136.19;5105330;28;20020;-71
2022/06/01 05:38:06;;;;;;;24.70;13.90;;;;;;;16.56;77.19;94131.69;5105267;28;20268;-71
2022/06/01 05:40:32;;;;;;;26.48;14.77;;;;;;;16.54;76.45;94127.78;5105017;28;20237;-70
2022/06/01 05:42:58;;;;;;;28.70;16.30;;;;;;;16.60;76.91;94127.19;5104774;28;20091;-70
2022/06/01 05:45:24;;;;;;;28.67;16.08;;;;;;;16.73;76.70;94114.47;5105148;28;20035;-71
2022/06/01 05:47:50;;;;;;;22.20;15.45;;;;;;;16.88;76.82;94121.00;5105049;28;20027;-71
2022/06/01 05:50:15;;;;;;;26.08;14.52;;;;;;;17.01;76.11;94114.41;5104933;28;20047;-71
2022/06/01 05:52:41;;;;;;;22.15;14.77;;;;;;;17.15;76.03;94110.50;5104729;28;20016;-72
2022/06/01 05:55:08;;;;;;;24.73;15.27;;;;;;;17.30;76.17;94112.41;5104847;28;20136;-72
2022/06/01 05:57:34;;;;;;;26.35;14.73;;;;;;;17.43;75.45;94121.94;5104648;28;20020;-71
2022/06/01 06:00:02;;;;;;;28.77;14.05;;;;;;;17.54;74.57;94107.94;5104904;28;20263;-72
2022/06/01 06:02:27;;;;;;;23.77;13.45;;;;;;;17.67;74.50;94111.28;5104459;28;20047;-71
2022/06/01 06:04:53;;;;;;;26.73;11.98;;;;;;;17.81;73.77;94108.94;5104554;28;20341;-71
2022/06/01 06:07:18;;;;;;;24.23;12.43;;;;;;;17.93;73.14;94116.94;5103339;28;20310;-72
2022/06/01 06:09:44;;;;;;;26.98;11.38;;;;;;;18.03;72.74;94112.88;5104761;28;20028;-71
2022/06/01 06:12:09;;;;;;;25.17;11.70;;;;;;;18.15;72.04;94109.25;5104262;28;20311;-71
2022/06/01 06:14:35;;;;;;;19.83;11.73;;;;;;;18.29;72.12;94114.94;5086034;28;20020;-70
2022/06/01 06:17:00;;;;;;;23.80;11.20;;;;;;;18.44;71.86;94110.63;5102780;28;20309;-70
2022/06/01 06:19:25;;;;;;;22.67;9.98;;;;;;;18.61;69.86;94114.78;5102654;28;20040;-71
2022/06/01 06:21:51;;;;;;;33.60;10.20;;;;;;;18.65;68.11;94116.41;5103429;28;20091;-71
2022/06/01 06:24:19;;;;;;;16.98;9.20;;;;;;;18.76;67.66;94115.81;5103506;28;20043;-70
2022/06/01 06:26:46;;;;;;;19.90;10.00;;;;;;;18.87;67.65;94111.44;5103517;28;20300;-71
2022/06/01 06:29:13;;;;;;;20.55;8.93;;;;;;;18.99;67.33;94108.56;5103386;28;20020;-71
2022/06/01 06:31:39;;;;;;;26.58;9.27;;;;;;;19.14;66.38;94100.69;5103747;28;20016;-71
2022/06/01 06:34:05;;;;;;;20.02;9.02;;;;;;;19.20;65.38;94102.72;5104033;28;20030;-71
2022/06/01 06:36:31;;;;;;;18.88;8.18;;;;;;;19.23;65.70;94103.91;5103436;28;20050;-71
2022/06/01 06:38:57;;;;;;;17.02;8.15;;;;;;;19.31;65.62;94102.88;5104033;28;20035;-69
2022/06/01 06:41:23;;;;;;;22.67;9.85;;;;;;;19.36;64.47;94105.28;5103535;28;20074;-72
2022/06/01 06:43:49;;;;;;;27.05;9.85;;;;;;;19.37;65.36;94103.34;5103774;28;20322;-72
2022/06/01 06:46:18;;;;;;;22.48;10.20;;;;;;;19.29;64.52;94104.38;5103665;28;20047;-72
2022/06/01 06:48:45;;;;;;;23.35;8.77;;;;;;;19.31;63.97;94105.56;5104066;28;20054;-72
2022/06/01 06:51:12;;;;;;;18.55;8.40;;;;;;;19.19;63.39;94101.16;5103499;28;20016;-72
2022/06/01 06:53:39;;;;;;;28.58;9.40;;;;;;;19.09;64.44;94099.06;5103758;28;20031;-72
2022/06/01 06:56:05;;;;;;;19.17;8.68;;;;;;;19.11;64.33;94101.41;5103648;28;20027;-72
2022/06/01 06:58:30;;;;;;;18.88;8.20;;;;;;;19.07;65.40;94092.44;5103497;28;20024;-72
2022/06/01 07:00:56;;;;;;;19.13;7.93;;;;;;;19.15;64.15;94096.81;5103212;28;20024;-72
2022/06/01 07:03:21;;;;;;;17.17;8.48;;;;;;;19.27;64.28;94091.22;5103457;28;20024;-72
2022/06/01 07:08:31;;;;;;;22.27;6.57;;;;;;;19.49;65.12;94094.28;5103575;28;20085;-72
2022/06/01 07:10:58;;;;;;;12.77;7.22;;;;;;;19.60;63.86;94093.28;5103476;28;20322;-71
2022/06/01 07:13:24;;;;;;;16.70;7.13;;;;;;;19.75;63.47;94094.28;5103231;28;20023;-72
2022/06/01 07:16:09;;;;;;;17.88;7.60;;;;;;;19.92;62.98;94089.50;5103156;28;20223;-73
2022/06/01 07:18:35;;;;;;;12.90;6.10;;;;;;;20.06;62.24;94081.56;5103196;28;20227;-72
2022/06/01 07:21:01;;;;;;;15.52;7.20;;;;;;;20.18;60.84;94086.72;5103203;28;20035;-72
2022/06/01 07:23:27;;;;;;;13.30;6.32;;;;;;;20.30;61.17;94088.41;5103289;28;20024;-73
2022/06/01 07:25:53;;;;;;;16.67;6.50;;;;;;;20.46;61.37;94092.84;5102982;28;20024;-73
2022/06/01 07:28:21;;;;;;;17.95;7.80;;;;;;;20.56;61.23;94092.19;5103101;28;20031;-72
2022/06/01 07:30:49;;;;;;;20.20;7.35;;;;;;;20.64;59.94;94085.72;5102538;28;20206;-71
2022/06/01 07:33:14;;;;;;;27.77;7.40;;;;;;;20.72;59.37;94078.44;5103017;28;20024;-71
2022/06/01 07:35:40;;;;;;;11.25;7.70;;;;;;;20.81;59.84;94087.06;5103456;28;20027;-71
2022/06/01 07:43:33;;;;;;;15.68;7.10;;;;;;;21.01;59.09;94095.75;5103232;28;20158;-71
2022/06/01 07:45:59;;;;;;;14.27;6.75;;;;;;;21.08;59.19;94084.19;5103020;28;20020;-71
2022/06/01 07:48:24;;;;;;;16.25;8.40;;;;;;;21.09;58.90;94085.75;5102823;28;20054;-71
2022/06/01 07:50:51;;;;;;;20.48;8.15;;;;;;;21.17;57.71;94087.38;5102947;28;20027;-71
2022/06/01 07:53:17;;;;;;;26.00;8.13;;;;;;;21.22;58.30;94085.09;5102804;28;20039;-73
2022/06/01 07:55:43;;;;;;;14.70;8.30;;;;;;;21.26;58.35;94087.81;5102888;28;20084;-72
2022/06/01 07:58:09;;;;;;;24.95;8.27;;;;;;;21.32;57.74;94085.56;5102926;28;20200;-72
2022/06/01 08:00:34;;;;;;;22.33;8.05;;;;;;;21.28;58.31;94087.47;5102939;28;20039;-72
2022/06/01 08:03:00;;;;;;;27.02;9.27;;;;;;;21.36;58.50;94095.25;5102854;28;20371;-72
2022/06/01 08:05:26;;;;;;;23.33;7.65;;;;;;;21.52;57.20;94088.84;5102775;28;20192;-72
2022/06/01 08:07:51;;;;;;;17.95;8.50;;;;;;;21.53;57.60;94095.78;5102418;28;20188;-73
2022/06/01 08:10:20;;;;;;;19.70;7.95;;;;;;;21.54;57.82;94083.81;5084874;28;20052;-71
2022/06/01 08:15:30;;;;;;;14.40;6.97;;;;;;;21.69;58.35;94082.72;5102740;28;20089;-72
2022/06/01 08:17:57;;;;;;;26.98;9.45;;;;;;;21.70;57.22;94092.44;5102472;28;20020;-72
2022/06/01 08:20:24;;;;;;;19.20;7.80;;;;;;;21.80;57.89;94086.28;5102644;28;20020;-72
2022/06/01 08:22:50;;;;;;;18.63;8.05;;;;;;;21.94;57.70;94092.94;5102531;28;20211;-72
2022/06/01 08:25:17;;;;;;;28.77;10.10;;;;;;;22.07;58.17;94096.91;5102871;28;20222;-71
2022/06/01 08:27:43;;;;;;;23.60;8.82;;;;;;;22.08;56.78;94087.59;5084510;28;20257;-69
2022/06/01 08:30:09;;;;;;;20.85;8.05;;;;;;;21.99;56.24;94098.03;5102423;28;20382;-71
2022/06/01 08:32:35;;;;;;;19.30;7.82;;;;;;;22.12;56.16;94091.09;5102716;28;20044;-70
2022/06/01 08:35:02;;;;;;;17.48;8.18;;;;;;;22.06;54.51;94098.03;5102374;28;20053;-69
2022/06/01 08:37:28;;;;;;;16.77;7.63;;;;;;;22.11;54.77;94088.78;5102448;28;20020;-70
2022/06/01 08:39:53;;;;;;;18.92;8.13;;;;;;;22.12;54.78;94080.25;5102282;28;20030;-69
2022/06/01 08:42:23;;;;;;;16.63;6.72;;;;;;;22.18;55.40;94081.44;5102507;28;20108;-69
2022/06/01 08:44:50;;;;;;;15.07;6.38;;;;;;;22.28;55.04;94088.09;5102130;28;20043;-70
2022/06/01 08:47:18;;;;;;;14.38;6.80;;;;;;;22.37;53.23;94082.34;5102554;28;20031;-71
2022/06/01 08:49:45;;;;;;;15.57;7.18;;;;;;;22.41;52.55;94083.88;5102425;28;20020;-70
2022/06/01 08:52:12;;;;;;;22.92;7.20;;;;;;;22.43;51.80;94078.84;5102368;28;20031;-71
2022/06/01 08:54:37;;;;;;;15.02;6.97;;;;;;;22.46;52.08;94081.97;5102163;28;20024;-72
2022/06/01 08:57:10;;;;;;;13.90;6.32;;;;;;;22.51;52.86;94078.84;5102244;28;20305;-70
2022/06/01 09:00:05;;;;;;;16.48;5.85;;;;;;;22.48;52.55;94082.34;5103723;28;20043;-70
2022/06/01 09:02:55;;;;;;;23.63;6.50;;;;;;;22.55;51.90;94083.16;5105620;28;20031;-71
2022/06/01 09:05:42;;;;;;;18.55;6.18;;;;;;;22.64;51.58;94080.06;5106019;28;20066;-71
2022/06/01 09:08:10;;;;;;;15.20;5.22;;;;;;;22.74;52.02;94082.03;5105482;28;20054;-70
2022/06/01 09:10:48;;;;;;;12.20;6.00;;;;;;;22.86;50.00;94080.91;5105609;28;20306;-70
2022/06/01 09:13:23;;;;;;;14.80;6.03;;;;;;;22.95;49.84;94075.84;5105626;28;20091;-71
2022/06/01 09:16:00;;;;;;;16.17;5.47;;;;;;;23.02;51.70;94078.63;5105548;28;20028;-71
2022/06/01 09:18:35;;;;;;;17.40;5.65;;;;;;;23.19;49.82;94084.44;5105296;28;20098;-71
2022/06/01 09:23:46;;;;;;;7.88;3.70;;;;;;;23.36;45.35;94080.16;5105200;28;20066;-72
2022/06/01 09:26:28;;;;;;;11.55;4.30;;;;;;;23.48;45.94;94073.56;5105355;28;20448;-71
2022/06/01 09:28:56;;;;;;;;;;;;;;;23.67;46.78;94073.16;5105498;28;20023;-72
2022/06/01 09:31:32;;;;;;;14.30;4.80;;;;;;;23.77;47.11;94069.69;5105230;28;19925;-72
2022/06/01 09:34:21;;;;;;;12.82;5.88;;;;;;;23.97;46.21;94067.28;5105231;28;20035;-73
2022/06/01 09:36:54;;;;;;;13.23;4.82;;;;;;;24.11;45.78;94066.44;5105308;28;20046;-72
2022/06/01 09:39:20;;;;;;;12.63;4.07;;;;;;;24.09;43.88;94068.03;5105118;28;20428;-71
2022/06/01 09:41:46;;;;;;;14.00;4.55;;;;;;;24.18;43.27;94063.72;5104845;28;20040;-72
2022/06/01 09:44:18;;;;;;;16.85;4.25;;;;;;;24.22;43.73;94061.75;5105109;28;20040;-72
2022/06/01 09:47:03;;;;;;;15.23;4.88;;;;;;;24.30;43.57;94062.50;5105076;28;20051;-71
2022/06/01 09:49:32;;;;;;;10.02;3.75;;;;;;;24.29;43.62;94062.91;5104768;28;20024;-72
2022/06/01 09:52:10;;;;;;;13.07;3.70;;;;;;;24.34;44.31;94057.03;5104904;28;20336;-72
2022/06/01 09:54:41;;;;;;;11.02;4.30;;;;;;;24.52;42.63;94063.19;5104615;28;20016;-72
2022/06/01 09:57:27;;;;;;;7.70;3.58;;;;;;;24.58;42.41;94061.59;5104613;28;20338;-72
2022/06/01 10:08:31;;;;;;;18.67;3.58;;;;;;;25.05;39.10;94046.91;5104579;28;20030;-72
2022/06/01 10:11:04;;;;;;;6.93;3.47;;;;;;;25.03;39.12;94050.81;5103588;28;20028;-72
2022/06/01 10:13:33;;;;;;;9.73;3.42;;;;;;;25.17;38.45;94054.59;5104603;28;20323;-72
2022/06/01 10:16:37;;;;;;;11.55;3.22;;;;;;;25.19;35.62;94052.25;5104591;28;20020;-71
2022/06/01 10:19:07;;;;;;;5.75;2.50;;;;;;;25.18;36.31;94054.22;5080761;28;20107;-72
2022/06/01 10:21:50;;;;;;;15.38;3.58;;;;;;;25.31;40.24;94059.19;5104348;28;20024;-72
2022/06/01 10:24:23;;;;;;;9.05;3.35;;;;;;;25.31;39.22;94051.78;5086469;28;20069;-72
2022/06/01 10:26:59;;;;;;;12.25;3.80;;;;;;;25.42;38.63;94049.75;5104330;28;20058;-73
2022/06/01 10:29:39;;;;;;;9.25;5.25;;;;;;;25.53;40.03;94063.28;5103846;28;20199;-72
2022/06/01 10:32:09;;;;;;;8.63;3.65;;;;;;;25.65;40.16;94059.28;5103917;28;20043;-72
2022/06/01 10:35:01;;;;;;;11.65;3.20;;;;;;;25.83;36.91;94053.66;5104200;28;20036;-72
2022/06/01 10:37:48;;;;;;;8.75;3.67;;;;;;;25.90;37.26;94041.91;5103991;28;20034;-73
2022/06/01 10:40:45;;;;;;;6.78;3.15;;;;;;;25.90;36.25;94047.38;5103902;28;20346;-73
2022/06/01 10:43:22;;;;;;;8.23;2.92;;;;;;;25.89;36.14;94052.03;5091912;28;20059;-73
2022/06/01 10:45:54;;;;;;;8.02;3.38;;;;;;;25.70;34.66;94053.38;5103697;28;20341;-73
2022/06/01 10:48:38;;;;;;;8.55;2.60;;;;;;;25.60;34.20;94055.06;5104155;28;20367;-73
2022/06/01 10:51:18;;;;;;;6.47;2.10;;;;;;;25.53;33.01;94046.16;5103848;28;20032;-73
2022/06/01 10:54:16;;;;;;;12.80;3.20;;;;;;;25.62;33.31;94038.25;5103708;28;20028;-73
2022/06/01 10:56:42;;;;;;;14.20;2.67;;;;;;;25.67;34.34;94032.38;5103826;28;20023;-73
2022/06/01 10:59:13;;;;;;;8.25;2.75;;;;;;;25.79;36.72;94045.50;5103682;28;20020;-73
2022/06/01 11:02:13;;;;;;;7.57;3.23;;;;;;;25.97;34.91;94041.81;5103649;28;20027;-73
2022/06/01 11:05:02;;;;;;;9.00;2.47;;;;;;;26.02;34.89;94041.38;5041650;28;20029;-74
2022/06/01 11:07:44;;;;;;;8.82;2.50;;;;;;;26.09;35.56;94032.31;5100050;28;20046;-71
2022/06/01 11:10:15;;;;;;;13.43;2.92;;;;;;;26.20;35.05;94033.75;5103533;28;20027;-71
2022/06/01 11:13:03;;;;;;;11.13;2.70;;;;;;;26.23;33.44;94018.50;5103351;28;20020;-71
2022/06/01 11:15:47;;;;;;;8.75;2.80;;;;;;;26.39;32.80;94017.91;5103284;28;20081;-73
2022/06/01 11:18:57;;;;;;;5.30;2.50;;;;;;;26.55;32.38;94020.03;5103223;28;20028;-71
2022/06/01 11:21:31;;;;;;;14.27;2.47;;;;;;;26.60;31.55;94014.94;5040985;28;20108;-72
2022/06/01 11:24:22;;;;;;;8.57;2.50;;;;;;;26.71;31.64;94006.56;5041088;28;20033;-70
2022/06/01 11:27:06;;;;;;;9.83;2.60;;;;;;;26.69;30.28;94016.38;5086880;28;20040;-71
2022/06/01 11:30:16;;;;;;;14.40;3.10;;;;;;;26.78;30.79;94016.59;5103154;28;20317;-70
2022/06/01 11:33:03;;;;;;;9.02;2.75;;;;;;;26.68;30.63;94007.38;5099832;28;20322;-70
2022/06/01 11:35:44;;;;;;;10.40;2.60;;;;;;;26.75;30.67;94001.81;5102769;28;20027;-70
2022/06/01 11:38:30;;;;;;;13.75;2.60;;;;;;;26.83;31.60;93999.75;5102772;28;20085;-70
2022/06/01 11:41:11;;;;;;;10.68;2.33;;;;;;;26.97;31.45;94005.00;5102551;28;20048;-70
2022/06/01 11:43:38;;;;;;;9.18;2.88;;;;;;;27.05;30.05;94000.19;5103008;28;20028;-70
2022/06/01 11:46:14;;;;;;;10.10;3.25;;;;;;;27.11;30.85;94006.75;5103007;28;20077;-70
2022/06/01 11:48:47;;;;;;;9.20;2.78;;;;;;;27.19;29.51;94008.16;5102818;28;20100;-70
2022/06/01 11:51:15;;;;;;;4.43;1.85;;;;;;;27.17;28.72;93999.59;5102959;28;20027;-71
2022/06/01 11:53:59;;;;;;;7.35;2.25;;;;;;;27.27;28.73;93997.13;5102793;28;20310;-71
2022/06/01 11:56:30;;;;;;;12.48;2.95;;;;;;;27.26;28.57;93990.13;5102773;28;20032;-71
2022/06/01 11:58:58;;;;;;;10.38;2.38;;;;;;;27.26;28.87;93996.34;5102766;28;20028;-71
2022/06/01 12:01:43;;;;;;;6.95;2.13;;;;;;;27.29;28.52;93992.78;5102894;28;20026;-70
2022/06/01 12:04:16;;;;;;;9.55;3.60;;;;;;;27.28;31.64;93985.75;5102636;28;20028;-71
2022/06/01 12:06:48;;;;;;;9.98;2.47;;;;;;;27.41;31.04;93980.44;5102674;28;20080;-71
2022/06/01 12:09:22;;;;;;;9.70;2.42;;;;;;;27.70;32.04;93983.47;5102661;28;20436;-71
2022/06/01 12:11:48;;;;;;;7.22;2.78;;;;;;;28.06;31.23;93979.28;5102568;28;20075;-71
2022/06/01 12:14:22;;;;;;;15.05;2.63;;;;;;;28.44;29.90;93973.41;5102511;28;20020;-71